sensor_id;sensor_type;location;lat;lon;timestamp;pressure;altitude;pressure_sealevel;temperature
76394;BMP180;65216;51.090;-115.352;2023-05-07T00:00:40;86700.40;;;21.70
76394;BMP180;65216;51.090;-115.352;2023-05-07T00:03:08;86717.00;;;21.70
76394;BMP180;65216;51.090;-115.352;2023-05-07T00:05:36;86709.40;;;21.70
76394;BMP180;65216;51.090;-115.352;2023-05-07T00:08:04;86703.40;;;21.70
76394;BMP180;65216;51.090;-115.352;2023-05-07T00:10:34;86723.00;;;21.70
76394;BMP180;65216;51.090;-115.352;2023-05-07T00:13:01;86724.80;;;21.70
76394;BMP180;65216;51.090;-115.352;2023-05-07T00:15:29;86723.80;;;21.70
76394;BMP180;65216;51.090;-115.352;2023-05-07T00:17:56;86716.40;;;21.70
76394;BMP180;65216;51.090;-115.352;2023-05-07T00:20:26;86724.00;;;21.70
76394;BMP180;65216;51.090;-115.352;2023-05-07T00:22:56;86725.60;;;21.70
76394;BMP180;65216;51.090;-115.352;2023-05-07T00:25:23;86716.40;;;21.70
76394;BMP180;65216;51.090;-115.352;2023-05-07T00:27:50;86725.00;;;21.70
76394;BMP180;65216;51.090;-115.352;2023-05-07T00:30:21;86727.20;;;21.70
76394;BMP180;65216;51.090;-115.352;2023-05-07T00:32:51;86717.20;;;21.70
76394;BMP180;65216;51.090;-115.352;2023-05-07T00:35:18;86722.60;;;21.70
76394;BMP180;65216;51.090;-115.352;2023-05-07T00:37:45;86726.00;;;21.70
76394;BMP180;65216;51.090;-115.352;2023-05-07T00:40:12;86730.20;;;21.62
76394;BMP180;65216;51.090;-115.352;2023-05-07T00:42:39;86730.40;;;21.60
76394;BMP180;65216;51.090;-115.352;2023-05-07T00:45:07;86732.60;;;21.60
76394;BMP180;65216;51.090;-115.352;2023-05-07T00:47:35;86737.00;;;21.60
76394;BMP180;65216;51.090;-115.352;2023-05-07T00:50:03;86729.40;;;21.60
76394;BMP180;65216;51.090;-115.352;2023-05-07T00:52:34;86728.80;;;21.60
76394;BMP180;65216;51.090;-115.352;2023-05-07T00:55:06;86737.60;;;21.60
76394;BMP180;65216;51.090;-115.352;2023-05-07T00:57:37;86731.60;;;21.60
76394;BMP180;65216;51.090;-115.352;2023-05-07T01:00:08;86735.60;;;21.60
76394;BMP180;65216;51.090;-115.352;2023-05-07T01:02:37;86741.20;;;21.60
76394;BMP180;65216;51.090;-115.352;2023-05-07T01:05:10;86740.80;;;21.60
76394;BMP180;65216;51.090;-115.352;2023-05-07T01:07:41;86740.20;;;21.60
76394;BMP180;65216;51.090;-115.352;2023-05-07T01:10:12;86730.00;;;21.54
76394;BMP180;65216;51.090;-115.352;2023-05-07T01:12:51;86737.80;;;21.56
76394;BMP180;65216;51.090;-115.352;2023-05-07T01:18:37;86731.60;;;21.50
76394;BMP180;65216;51.090;-115.352;2023-05-07T01:21:16;86734.80;;;21.50
76394;BMP180;65216;51.090;-115.352;2023-05-07T01:23:45;86744.20;;;21.50
76394;BMP180;65216;51.090;-115.352;2023-05-07T01:26:39;86750.00;;;21.50
76394;BMP180;65216;51.090;-115.352;2023-05-07T01:29:12;86738.80;;;21.50
76394;BMP180;65216;51.090;-115.352;2023-05-07T01:31:51;86749.60;;;21.50
76394;BMP180;65216;51.090;-115.352;2023-05-07T01:34:27;86746.40;;;21.50
76394;BMP180;65216;51.090;-115.352;2023-05-07T01:36:56;86729.60;;;21.50
76394;BMP180;65216;51.090;-115.352;2023-05-07T01:39:29;86741.60;;;21.50
76394;BMP180;65216;51.090;-115.352;2023-05-07T01:41:59;86739.40;;;21.50
76394;BMP180;65216;51.090;-115.352;2023-05-07T01:44:28;86745.60;;;21.50
76394;BMP180;65216;51.090;-115.352;2023-05-07T01:46:56;86746.00;;;21.50
76394;BMP180;65216;51.090;-115.352;2023-05-07T01:49:24;86753.20;;;21.50
76394;BMP180;65216;51.090;-115.352;2023-05-07T01:51:51;86742.60;;;21.50
76394;BMP180;65216;51.090;-115.352;2023-05-07T01:54:19;86750.00;;;21.50
76394;BMP180;65216;51.090;-115.352;2023-05-07T01:56:47;86749.80;;;21.50
76394;BMP180;65216;51.090;-115.352;2023-05-07T01:59:15;86751.00;;;21.50
76394;BMP180;65216;51.090;-115.352;2023-05-07T02:01:42;86736.40;;;21.50
76394;BMP180;65216;51.090;-115.352;2023-05-07T02:04:12;86729.80;;;21.46
76394;BMP180;65216;51.090;-115.352;2023-05-07T02:06:39;86741.20;;;21.46
76394;BMP180;65216;51.090;-115.352;2023-05-07T02:09:06;86742.40;;;21.40
76394;BMP180;65216;51.090;-115.352;2023-05-07T02:11:35;86743.00;;;21.40
76394;BMP180;65216;51.090;-115.352;2023-05-07T02:14:02;86749.40;;;21.40
76394;BMP180;65216;51.090;-115.352;2023-05-07T02:16:29;86739.80;;;21.40
76394;BMP180;65216;51.090;-115.352;2023-05-07T02:18:56;86735.00;;;21.40
76394;BMP180;65216;51.090;-115.352;2023-05-07T02:21:25;86735.40;;;21.40
76394;BMP180;65216;51.090;-115.352;2023-05-07T02:23:52;86739.80;;;21.40
76394;BMP180;65216;51.090;-115.352;2023-05-07T02:26:19;86746.00;;;21.40
76394;BMP180;65216;51.090;-115.352;2023-05-07T02:28:48;86740.80;;;21.40
76394;BMP180;65216;51.090;-115.352;2023-05-07T02:31:15;86744.00;;;21.40
76394;BMP180;65216;51.090;-115.352;2023-05-07T02:33:42;86738.00;;;21.38
76394;BMP180;65216;51.090;-115.352;2023-05-07T02:36:15;86730.20;;;21.32
76394;BMP180;65216;51.090;-115.352;2023-05-07T02:38:42;86730.60;;;21.30
76394;BMP180;65216;51.090;-115.352;2023-05-07T02:41:12;86728.40;;;21.30
76394;BMP180;65216;51.090;-115.352;2023-05-07T02:43:42;86734.20;;;21.30
76394;BMP180;65216;51.090;-115.352;2023-05-07T02:46:09;86734.80;;;21.30
76394;BMP180;65216;51.090;-115.352;2023-05-07T02:48:37;86731.80;;;21.30
76394;BMP180;65216;51.090;-115.352;2023-05-07T02:51:04;86728.20;;;21.30
76394;BMP180;65216;51.090;-115.352;2023-05-07T02:53:32;86727.60;;;21.30
76394;BMP180;65216;51.090;-115.352;2023-05-07T02:56:00;86730.00;;;21.30
76394;BMP180;65216;51.090;-115.352;2023-05-07T02:58:28;86726.60;;;21.30
76394;BMP180;65216;51.090;-115.352;2023-05-07T03:00:55;86730.20;;;21.30
76394;BMP180;65216;51.090;-115.352;2023-05-07T03:03:23;86733.40;;;21.30
76394;BMP180;65216;51.090;-115.352;2023-05-07T03:05:50;86734.80;;;21.30
76394;BMP180;65216;51.090;-115.352;2023-05-07T03:08:17;86736.60;;;21.30
76394;BMP180;65216;51.090;-115.352;2023-05-07T03:10:44;86737.20;;;21.30
76394;BMP180;65216;51.090;-115.352;2023-05-07T03:13:14;86738.40;;;21.20
76394;BMP180;65216;51.090;-115.352;2023-05-07T03:15:41;86735.80;;;21.22
76394;BMP180;65216;51.090;-115.352;2023-05-07T03:18:08;86728.40;;;21.20
76394;BMP180;65216;51.090;-115.352;2023-05-07T03:20:38;86731.00;;;21.20
76394;BMP180;65216;51.090;-115.352;2023-05-07T03:23:05;86729.20;;;21.20
76394;BMP180;65216;51.090;-115.352;2023-05-07T03:25:32;86727.20;;;21.20
76394;BMP180;65216;51.090;-115.352;2023-05-07T03:27:59;86729.60;;;21.20
76394;BMP180;65216;51.090;-115.352;2023-05-07T03:30:27;86730.60;;;21.20
76394;BMP180;65216;51.090;-115.352;2023-05-07T03:32:56;86728.40;;;21.20
76394;BMP180;65216;51.090;-115.352;2023-05-07T03:35:24;86727.00;;;21.18
76394;BMP180;65216;51.090;-115.352;2023-05-07T03:37:51;86724.60;;;21.14
76394;BMP180;65216;51.090;-115.352;2023-05-07T03:40:20;86726.60;;;21.14
76394;BMP180;65216;51.090;-115.352;2023-05-07T03:42:47;86728.60;;;21.14
76394;BMP180;65216;51.090;-115.352;2023-05-07T03:45:14;86725.20;;;21.20
76394;BMP180;65216;51.090;-115.352;2023-05-07T03:47:44;86728.80;;;21.12
76394;BMP180;65216;51.090;-115.352;2023-05-07T03:50:12;86723.20;;;21.10
76394;BMP180;65216;51.090;-115.352;2023-05-07T03:52:39;86723.20;;;21.10
76394;BMP180;65216;51.090;-115.352;2023-05-07T03:55:07;86718.20;;;21.10
76394;BMP180;65216;51.090;-115.352;2023-05-07T03:57:34;86717.20;;;21.10
76394;BMP180;65216;51.090;-115.352;2023-05-07T04:00:01;86711.20;;;21.10
76394;BMP180;65216;51.090;-115.352;2023-05-07T04:02:30;86709.40;;;21.10
76394;BMP180;65216;51.090;-115.352;2023-05-07T04:04:57;86712.80;;;21.10
76394;BMP180;65216;51.090;-115.352;2023-05-07T04:07:24;86713.20;;;21.10
76394;BMP180;65216;51.090;-115.352;2023-05-07T04:09:51;86714.00;;;21.10
76394;BMP180;65216;51.090;-115.352;2023-05-07T04:12:18;86712.80;;;21.10
76394;BMP180;65216;51.090;-115.352;2023-05-07T04:14:46;86714.80;;;21.10
76394;BMP180;65216;51.090;-115.352;2023-05-07T04:17:13;86713.40;;;21.10
76394;BMP180;65216;51.090;-115.352;2023-05-07T04:19:40;86714.20;;;21.10
76394;BMP180;65216;51.090;-115.352;2023-05-07T04:22:11;86706.20;;;21.08
76394;BMP180;65216;51.090;-115.352;2023-05-07T04:24:39;86705.00;;;21.08
76394;BMP180;65216;51.090;-115.352;2023-05-07T04:27:06;86702.40;;;21.10
76394;BMP180;65216;51.090;-115.352;2023-05-07T04:29:33;86703.20;;;21.10
76394;BMP180;65216;51.090;-115.352;2023-05-07T04:32:00;86703.60;;;21.10
76394;BMP180;65216;51.090;-115.352;2023-05-07T04:34:28;86700.60;;;21.10
76394;BMP180;65216;51.090;-115.352;2023-05-07T04:36:59;86700.60;;;21.10
76394;BMP180;65216;51.090;-115.352;2023-05-07T04:39:27;86696.00;;;21.10
76394;BMP180;65216;51.090;-115.352;2023-05-07T04:41:54;86694.60;;;21.10
76394;BMP180;65216;51.090;-115.352;2023-05-07T04:44:24;86693.20;;;21.10
76394;BMP180;65216;51.090;-115.352;2023-05-07T04:46:52;86689.40;;;21.10
76394;BMP180;65216;51.090;-115.352;2023-05-07T04:49:19;86690.80;;;21.10
76394;BMP180;65216;51.090;-115.352;2023-05-07T04:51:46;86689.40;;;21.10
76394;BMP180;65216;51.090;-115.352;2023-05-07T04:54:16;86683.20;;;21.10
76394;BMP180;65216;51.090;-115.352;2023-05-07T04:56:44;86682.00;;;21.10
76394;BMP180;65216;51.090;-115.352;2023-05-07T04:59:14;86678.80;;;21.10
76394;BMP180;65216;51.090;-115.352;2023-05-07T05:01:41;86675.20;;;21.10
76394;BMP180;65216;51.090;-115.352;2023-05-07T05:04:08;86674.60;;;21.10
76394;BMP180;65216;51.090;-115.352;2023-05-07T05:06:36;86676.00;;;21.10
76394;BMP180;65216;51.090;-115.352;2023-05-07T05:09:04;86674.40;;;21.10
76394;BMP180;65216;51.090;-115.352;2023-05-07T05:11:36;86670.80;;;21.10
76394;BMP180;65216;51.090;-115.352;2023-05-07T05:14:03;86669.80;;;21.10
76394;BMP180;65216;51.090;-115.352;2023-05-07T05:16:30;86664.80;;;21.10
76394;BMP180;65216;51.090;-115.352;2023-05-07T05:19:01;86665.80;;;21.10
76394;BMP180;65216;51.090;-115.352;2023-05-07T05:21:29;86660.40;;;21.10
76394;BMP180;65216;51.090;-115.352;2023-05-07T05:23:55;86661.20;;;21.10
76394;BMP180;65216;51.090;-115.352;2023-05-07T05:26:26;86659.20;;;21.14
76394;BMP180;65216;51.090;-115.352;2023-05-07T05:28:55;86659.60;;;21.18
76394;BMP180;65216;51.090;-115.352;2023-05-07T05:31:22;86657.80;;;21.20
76394;BMP180;65216;51.090;-115.352;2023-05-07T05:33:50;86656.00;;;21.18
76394;BMP180;65216;51.090;-115.352;2023-05-07T05:36:17;86655.80;;;21.18
76394;BMP180;65216;51.090;-115.352;2023-05-07T05:38:44;86651.20;;;21.20
76394;BMP180;65216;51.090;-115.352;2023-05-07T05:41:11;86652.40;;;21.20
76394;BMP180;65216;51.090;-115.352;2023-05-07T05:43:38;86650.00;;;21.20
76394;BMP180;65216;51.090;-115.352;2023-05-07T05:46:06;86654.60;;;21.20
76394;BMP180;65216;51.090;-115.352;2023-05-07T05:48:34;86652.60;;;21.20
76394;BMP180;65216;51.090;-115.352;2023-05-07T05:51:01;86650.20;;;21.20
76394;BMP180;65216;51.090;-115.352;2023-05-07T05:53:29;86651.60;;;21.20
76394;BMP180;65216;51.090;-115.352;2023-05-07T05:55:56;86658.20;;;21.20
76394;BMP180;65216;51.090;-115.352;2023-05-07T05:58:23;86656.00;;;21.20
76394;BMP180;65216;51.090;-115.352;2023-05-07T06:00:53;86652.60;;;21.20
76394;BMP180;65216;51.090;-115.352;2023-05-07T06:03:23;86653.80;;;21.20
76394;BMP180;65216;51.090;-115.352;2023-05-07T06:05:50;86647.80;;;21.20
76394;BMP180;65216;51.090;-115.352;2023-05-07T06:08:17;86648.00;;;21.20
76394;BMP180;65216;51.090;-115.352;2023-05-07T06:10:45;86649.80;;;21.20
76394;BMP180;65216;51.090;-115.352;2023-05-07T06:13:12;86644.00;;;21.20
76394;BMP180;65216;51.090;-115.352;2023-05-07T06:15:39;86645.20;;;21.20
76394;BMP180;65216;51.090;-115.352;2023-05-07T06:18:05;86647.20;;;21.20
76394;BMP180;65216;51.090;-115.352;2023-05-07T06:20:33;86646.40;;;21.20
76394;BMP180;65216;51.090;-115.352;2023-05-07T06:23:00;86649.80;;;21.20
76394;BMP180;65216;51.090;-115.352;2023-05-07T06:25:28;86646.60;;;21.20
76394;BMP180;65216;51.090;-115.352;2023-05-07T06:27:55;86644.20;;;21.20
76394;BMP180;65216;51.090;-115.352;2023-05-07T06:30:22;86640.60;;;21.20
76394;BMP180;65216;51.090;-115.352;2023-05-07T06:32:50;86638.60;;;21.20
76394;BMP180;65216;51.090;-115.352;2023-05-07T06:35:19;86642.60;;;21.20
76394;BMP180;65216;51.090;-115.352;2023-05-07T06:37:49;86637.60;;;21.20
76394;BMP180;65216;51.090;-115.352;2023-05-07T06:40:16;86636.00;;;21.20
76394;BMP180;65216;51.090;-115.352;2023-05-07T06:42:46;86633.00;;;21.20
76394;BMP180;65216;51.090;-115.352;2023-05-07T06:45:13;86630.40;;;21.20
76394;BMP180;65216;51.090;-115.352;2023-05-07T06:47:43;86629.60;;;21.20
76394;BMP180;65216;51.090;-115.352;2023-05-07T06:50:16;86628.40;;;21.20
76394;BMP180;65216;51.090;-115.352;2023-05-07T06:52:43;86626.40;;;21.20
76394;BMP180;65216;51.090;-115.352;2023-05-07T06:55:10;86625.60;;;21.20
76394;BMP180;65216;51.090;-115.352;2023-05-07T06:57:38;86627.60;;;21.20
76394;BMP180;65216;51.090;-115.352;2023-05-07T07:00:06;86630.60;;;21.20
76394;BMP180;65216;51.090;-115.352;2023-05-07T07:02:38;86626.80;;;21.20
76394;BMP180;65216;51.090;-115.352;2023-05-07T07:05:05;86626.80;;;21.20
76394;BMP180;65216;51.090;-115.352;2023-05-07T07:07:33;86627.40;;;21.20
76394;BMP180;65216;51.090;-115.352;2023-05-07T07:10:02;86628.80;;;21.20
76394;BMP180;65216;51.090;-115.352;2023-05-07T07:12:31;86620.60;;;21.20
76394;BMP180;65216;51.090;-115.352;2023-05-07T07:14:58;86621.00;;;21.20
76394;BMP180;65216;51.090;-115.352;2023-05-07T07:17:25;86621.80;;;21.20
76394;BMP180;65216;51.090;-115.352;2023-05-07T07:19:55;86620.00;;;21.20
76394;BMP180;65216;51.090;-115.352;2023-05-07T07:22:22;86621.00;;;21.20
76394;BMP180;65216;51.090;-115.352;2023-05-07T07:24:49;86615.60;;;21.20
76394;BMP180;65216;51.090;-115.352;2023-05-07T07:27:19;86613.80;;;21.20
76394;BMP180;65216;51.090;-115.352;2023-05-07T07:29:49;86615.80;;;21.20
76394;BMP180;65216;51.090;-115.352;2023-05-07T07:32:16;86612.80;;;21.20
76394;BMP180;65216;51.090;-115.352;2023-05-07T07:34:43;86610.60;;;21.20
76394;BMP180;65216;51.090;-115.352;2023-05-07T07:37:10;86608.20;;;21.20
76394;BMP180;65216;51.090;-115.352;2023-05-07T07:39:40;86611.40;;;21.20
76394;BMP180;65216;51.090;-115.352;2023-05-07T07:42:10;86612.00;;;21.20
76394;BMP180;65216;51.090;-115.352;2023-05-07T07:44:38;86609.40;;;21.20
76394;BMP180;65216;51.090;-115.352;2023-05-07T07:47:06;86610.00;;;21.20
76394;BMP180;65216;51.090;-115.352;2023-05-07T07:49:33;86612.00;;;21.20
76394;BMP180;65216;51.090;-115.352;2023-05-07T07:52:03;86608.00;;;21.20
76394;BMP180;65216;51.090;-115.352;2023-05-07T07:54:30;86603.60;;;21.20
76394;BMP180;65216;51.090;-115.352;2023-05-07T07:57:01;86602.40;;;21.20
76394;BMP180;65216;51.090;-115.352;2023-05-07T07:59:28;86599.80;;;21.20
76394;BMP180;65216;51.090;-115.352;2023-05-07T08:01:55;86602.40;;;21.20
76394;BMP180;65216;51.090;-115.352;2023-05-07T08:04:25;86599.80;;;21.20
76394;BMP180;65216;51.090;-115.352;2023-05-07T08:06:52;86598.20;;;21.20
76394;BMP180;65216;51.090;-115.352;2023-05-07T08:09:21;86604.40;;;21.20
76394;BMP180;65216;51.090;-115.352;2023-05-07T08:11:48;86602.80;;;21.20
76394;BMP180;65216;51.090;-115.352;2023-05-07T08:14:15;86600.40;;;21.16
76394;BMP180;65216;51.090;-115.352;2023-05-07T08:16:42;86599.80;;;21.20
76394;BMP180;65216;51.090;-115.352;2023-05-07T08:19:09;86598.40;;;21.20
76394;BMP180;65216;51.090;-115.352;2023-05-07T08:21:39;86598.60;;;21.20
76394;BMP180;65216;51.090;-115.352;2023-05-07T08:24:07;86598.80;;;21.20
76394;BMP180;65216;51.090;-115.352;2023-05-07T08:26:34;86595.40;;;21.20
76394;BMP180;65216;51.090;-115.352;2023-05-07T08:29:02;86594.20;;;21.20
76394;BMP180;65216;51.090;-115.352;2023-05-07T08:31:29;86589.60;;;21.20
76394;BMP180;65216;51.090;-115.352;2023-05-07T08:33:58;86587.40;;;21.20
76394;BMP180;65216;51.090;-115.352;2023-05-07T08:36:25;86585.80;;;21.20
76394;BMP180;65216;51.090;-115.352;2023-05-07T08:38:53;86585.20;;;21.20
76394;BMP180;65216;51.090;-115.352;2023-05-07T08:41:21;86577.40;;;21.20
76394;BMP180;65216;51.090;-115.352;2023-05-07T08:43:50;86573.80;;;21.20
76394;BMP180;65216;51.090;-115.352;2023-05-07T08:46:21;86579.00;;;21.20
76394;BMP180;65216;51.090;-115.352;2023-05-07T08:48:52;86575.40;;;21.20
76394;BMP180;65216;51.090;-115.352;2023-05-07T08:51:21;86573.20;;;21.20
76394;BMP180;65216;51.090;-115.352;2023-05-07T08:53:49;86570.20;;;21.20
76394;BMP180;65216;51.090;-115.352;2023-05-07T08:56:17;86573.40;;;21.20
76394;BMP180;65216;51.090;-115.352;2023-05-07T08:58:48;86569.80;;;21.20
76394;BMP180;65216;51.090;-115.352;2023-05-07T09:01:16;86572.80;;;21.14
76394;BMP180;65216;51.090;-115.352;2023-05-07T09:03:47;86572.80;;;21.14
76394;BMP180;65216;51.090;-115.352;2023-05-07T09:06:15;86568.20;;;21.18
76394;BMP180;65216;51.090;-115.352;2023-05-07T09:08:52;86566.00;;;21.20
76394;BMP180;65216;51.090;-115.352;2023-05-07T09:11:25;86565.80;;;21.20
76394;BMP180;65216;51.090;-115.352;2023-05-07T09:13:57;86560.60;;;21.20
76394;BMP180;65216;51.090;-115.352;2023-05-07T09:16:26;86560.40;;;21.20
76394;BMP180;65216;51.090;-115.352;2023-05-07T09:18:59;86559.20;;;21.20
76394;BMP180;65216;51.090;-115.352;2023-05-07T09:21:27;86552.80;;;21.20
76394;BMP180;65216;51.090;-115.352;2023-05-07T09:23:58;86551.00;;;21.20
76394;BMP180;65216;51.090;-115.352;2023-05-07T09:26:28;86550.20;;;21.12
76394;BMP180;65216;51.090;-115.352;2023-05-07T09:28:58;86546.20;;;21.12
76394;BMP180;65216;51.090;-115.352;2023-05-07T09:31:25;86546.60;;;21.18
76394;BMP180;65216;51.090;-115.352;2023-05-07T09:33:53;86547.20;;;21.20
76394;BMP180;65216;51.090;-115.352;2023-05-07T09:36:25;86546.60;;;21.20
76394;BMP180;65216;51.090;-115.352;2023-05-07T09:38:53;86544.00;;;21.20
76394;BMP180;65216;51.090;-115.352;2023-05-07T09:41:21;86544.80;;;21.20
76394;BMP180;65216;51.090;-115.352;2023-05-07T09:43:55;86541.20;;;21.20
76394;BMP180;65216;51.090;-115.352;2023-05-07T09:46:30;86541.60;;;21.20
76394;BMP180;65216;51.090;-115.352;2023-05-07T09:49:01;86539.80;;;21.20
76394;BMP180;65216;51.090;-115.352;2023-05-07T09:51:48;86538.80;;;21.20
76394;BMP180;65216;51.090;-115.352;2023-05-07T09:54:17;86535.80;;;21.16
76394;BMP180;65216;51.090;-115.352;2023-05-07T09:56:49;86538.00;;;21.20
76394;BMP180;65216;51.090;-115.352;2023-05-07T09:59:16;86534.80;;;21.20
76394;BMP180;65216;51.090;-115.352;2023-05-07T10:01:45;86537.20;;;21.20
76394;BMP180;65216;51.090;-115.352;2023-05-07T10:04:14;86536.00;;;21.14
76394;BMP180;65216;51.090;-115.352;2023-05-07T10:06:43;86534.20;;;21.10
76394;BMP180;65216;51.090;-115.352;2023-05-07T10:09:12;86530.00;;;21.10
76394;BMP180;65216;51.090;-115.352;2023-05-07T10:11:41;86527.20;;;21.10
76394;BMP180;65216;51.090;-115.352;2023-05-07T10:14:09;86529.00;;;21.10
76394;BMP180;65216;51.090;-115.352;2023-05-07T10:16:37;86531.40;;;21.10
76394;BMP180;65216;51.090;-115.352;2023-05-07T10:19:06;86529.80;;;21.02
76394;BMP180;65216;51.090;-115.352;2023-05-07T10:21:37;86532.20;;;21.02
76394;BMP180;65216;51.090;-115.352;2023-05-07T10:24:10;86534.00;;;21.00
76394;BMP180;65216;51.090;-115.352;2023-05-07T10:26:49;86535.40;;;21.00
76394;BMP180;65216;51.090;-115.352;2023-05-07T10:29:47;86537.00;;;21.00
76394;BMP180;65216;51.090;-115.352;2023-05-07T10:35:38;86533.00;;;21.00
76394;BMP180;65216;51.090;-115.352;2023-05-07T10:37:59;86527.20;;;21.00
76394;BMP180;65216;51.090;-115.352;2023-05-07T10:40:26;86530.40;;;21.00
76394;BMP180;65216;51.090;-115.352;2023-05-07T10:43:04;86526.40;;;20.90
76394;BMP180;65216;51.090;-115.352;2023-05-07T10:45:32;86533.40;;;20.92
76394;BMP180;65216;51.090;-115.352;2023-05-07T10:48:07;86530.20;;;20.90
76394;BMP180;65216;51.090;-115.352;2023-05-07T10:50:37;86528.80;;;20.90
76394;BMP180;65216;51.090;-115.352;2023-05-07T10:53:20;86527.00;;;20.90
76394;BMP180;65216;51.090;-115.352;2023-05-07T11:00:50;86527.00;;;20.90
76394;BMP180;65216;51.090;-115.352;2023-05-07T11:03:18;86529.60;;;20.90
76394;BMP180;65216;51.090;-115.352;2023-05-07T11:05:45;86527.60;;;20.90
76394;BMP180;65216;51.090;-115.352;2023-05-07T11:08:12;86528.40;;;20.90
76394;BMP180;65216;51.090;-115.352;2023-05-07T11:10:55;86530.20;;;20.90
76394;BMP180;65216;51.090;-115.352;2023-05-07T11:16:22;86527.80;;;20.90
76394;BMP180;65216;51.090;-115.352;2023-05-07T11:18:56;86525.80;;;20.90
76394;BMP180;65216;51.090;-115.352;2023-05-07T11:21:41;86526.20;;;20.86
76394;BMP180;65216;51.090;-115.352;2023-05-07T11:24:10;86525.40;;;20.84
76394;BMP180;65216;51.090;-115.352;2023-05-07T11:26:52;86520.20;;;20.80
76394;BMP180;65216;51.090;-115.352;2023-05-07T11:29:21;86521.80;;;20.80
76394;BMP180;65216;51.090;-115.352;2023-05-07T11:31:55;86519.80;;;20.80
76394;BMP180;65216;51.090;-115.352;2023-05-07T11:34:24;86525.60;;;20.80
76394;BMP180;65216;51.090;-115.352;2023-05-07T11:36:55;86529.20;;;20.80
76394;BMP180;65216;51.090;-115.352;2023-05-07T11:39:32;86535.80;;;20.80
76394;BMP180;65216;51.090;-115.352;2023-05-07T11:42:02;86528.60;;;20.80
76394;BMP180;65216;51.090;-115.352;2023-05-07T11:44:43;86526.40;;;20.80
76394;BMP180;65216;51.090;-115.352;2023-05-07T11:47:17;86522.80;;;20.80
76394;BMP180;65216;51.090;-115.352;2023-05-07T11:49:57;86518.20;;;20.80
76394;BMP180;65216;51.090;-115.352;2023-05-07T11:52:28;86522.80;;;20.80
76394;BMP180;65216;51.090;-115.352;2023-05-07T11:54:58;86519.40;;;20.80
76394;BMP180;65216;51.090;-115.352;2023-05-07T11:57:27;86516.00;;;20.80
76394;BMP180;65216;51.090;-115.352;2023-05-07T11:59:59;86516.60;;;20.80
76394;BMP180;65216;51.090;-115.352;2023-05-07T12:02:28;86514.20;;;20.80
76394;BMP180;65216;51.090;-115.352;2023-05-07T12:04:56;86506.80;;;20.78
76394;BMP180;65216;51.090;-115.352;2023-05-07T12:07:26;86505.60;;;20.78
76394;BMP180;65216;51.090;-115.352;2023-05-07T12:09:54;86502.20;;;20.80
76394;BMP180;65216;51.090;-115.352;2023-05-07T12:12:21;86503.60;;;20.74
76394;BMP180;65216;51.090;-115.352;2023-05-07T12:14:53;86501.60;;;20.72
76394;BMP180;65216;51.090;-115.352;2023-05-07T12:17:21;86499.80;;;20.70
76394;BMP180;65216;51.090;-115.352;2023-05-07T12:19:48;86497.20;;;20.70
76394;BMP180;65216;51.090;-115.352;2023-05-07T12:22:15;86499.80;;;20.70
76394;BMP180;65216;51.090;-115.352;2023-05-07T12:24:57;86501.60;;;20.70
76394;BMP180;65216;51.090;-115.352;2023-05-07T12:27:26;86497.60;;;20.70
76394;BMP180;65216;51.090;-115.352;2023-05-07T12:29:53;86499.20;;;20.70
76394;BMP180;65216;51.090;-115.352;2023-05-07T12:32:21;86496.20;;;20.70
76394;BMP180;65216;51.090;-115.352;2023-05-07T12:34:54;86496.20;;;20.70
76394;BMP180;65216;51.090;-115.352;2023-05-07T12:37:25;86493.80;;;20.70
76394;BMP180;65216;51.090;-115.352;2023-05-07T12:40:06;86494.40;;;20.70
76394;BMP180;65216;51.090;-115.352;2023-05-07T12:42:37;86493.20;;;20.70
76394;BMP180;65216;51.090;-115.352;2023-05-07T12:45:11;86486.80;;;20.70
76394;BMP180;65216;51.090;-115.352;2023-05-07T12:47:38;86485.20;;;20.70
76394;BMP180;65216;51.090;-115.352;2023-05-07T12:50:06;86482.60;;;20.70
76394;BMP180;65216;51.090;-115.352;2023-05-07T12:52:35;86478.60;;;20.70
76394;BMP180;65216;51.090;-115.352;2023-05-07T12:55:06;86474.20;;;20.70
76394;BMP180;65216;51.090;-115.352;2023-05-07T12:57:47;86473.40;;;20.70
76394;BMP180;65216;51.090;-115.352;2023-05-07T13:00:15;86473.60;;;20.70
76394;BMP180;65216;51.090;-115.352;2023-05-07T13:02:44;86470.40;;;20.70
76394;BMP180;65216;51.090;-115.352;2023-05-07T13:05:12;86471.40;;;20.78
76394;BMP180;65216;51.090;-115.352;2023-05-07T13:07:39;86464.80;;;20.72
76394;BMP180;65216;51.090;-115.352;2023-05-07T13:10:08;86465.00;;;20.80
76394;BMP180;65216;51.090;-115.352;2023-05-07T13:12:35;86470.00;;;20.80
76394;BMP180;65216;51.090;-115.352;2023-05-07T13:15:02;86466.00;;;20.80
76394;BMP180;65216;51.090;-115.352;2023-05-07T13:17:29;86467.00;;;20.80
76394;BMP180;65216;51.090;-115.352;2023-05-07T13:19:57;86468.00;;;20.80
76394;BMP180;65216;51.090;-115.352;2023-05-07T13:22:25;86466.00;;;20.80
76394;BMP180;65216;51.090;-115.352;2023-05-07T13:24:52;86468.20;;;20.80
76394;BMP180;65216;51.090;-115.352;2023-05-07T13:27:20;86471.60;;;20.80
76394;BMP180;65216;51.090;-115.352;2023-05-07T13:29:47;86470.00;;;20.80
76394;BMP180;65216;51.090;-115.352;2023-05-07T13:32:17;86471.20;;;20.86
76394;BMP180;65216;51.090;-115.352;2023-05-07T13:34:43;86475.40;;;20.90
76394;BMP180;65216;51.090;-115.352;2023-05-07T13:37:10;86471.80;;;20.90
76394;BMP180;65216;51.090;-115.352;2023-05-07T13:39:38;86470.00;;;20.90
76394;BMP180;65216;51.090;-115.352;2023-05-07T13:42:05;86469.20;;;20.90
76394;BMP180;65216;51.090;-115.352;2023-05-07T13:44:32;86474.00;;;20.90
76394;BMP180;65216;51.090;-115.352;2023-05-07T13:46:59;86471.40;;;20.90
76394;BMP180;65216;51.090;-115.352;2023-05-07T13:49:29;86469.40;;;20.90
76394;BMP180;65216;51.090;-115.352;2023-05-07T13:51:57;86475.20;;;20.90
76394;BMP180;65216;51.090;-115.352;2023-05-07T13:54:24;86474.80;;;20.90
76394;BMP180;65216;51.090;-115.352;2023-05-07T13:56:51;86474.00;;;20.90